Time;durP1;ratioP1;P1;durP2;ratioP2;P2;SDS_P1;SDS_P2;PMS_P1;PMS_P2;Temp;Humidity;BMP_temperature;BMP_pressure;BME280_temperature;BME280_humidity;BME280_pressure;Samples;Min_cycle;Max_cycle;Signal;HPM_P1;HPM_P2
2021/04/18 00:00:18;;;;;;;15.55;12.60;;;;;;;3.93;75.26;95923.50;4991306;28;20093;-49
2021/04/18 00:02:45;;;;;;;17.75;13.07;;;;;;;3.71;74.90;95920.63;4991198;28;20365;-48
2021/04/18 00:05:12;;;;;;;16.98;14.00;;;;;;;3.84;75.26;95911.88;4991387;28;20423;-51
2021/04/18 00:07:40;;;;;;;16.00;12.65;;;;;;;3.66;75.05;95909.97;5009718;28;20061;-49
2021/04/18 00:10:08;;;;;;;14.82;12.55;;;;;;;3.72;75.20;95923.00;4991211;28;20510;-50
2021/04/18 00:12:35;;;;;;;15.82;13.15;;;;;;;3.54;75.75;95914.94;4990715;28;20105;-49
2021/04/18 00:15:08;;;;;;;14.85;12.25;;;;;;;3.50;75.61;95904.81;4990982;28;20062;-48
2021/04/18 00:17:34;;;;;;;16.45;12.80;;;;;;;3.46;75.85;95908.34;4991468;28;20149;-49
2021/04/18 00:20:04;;;;;;;15.73;13.00;;;;;;;3.46;75.92;95898.44;4991090;28;20799;-51
2021/04/18 00:22:30;;;;;;;18.65;13.07;;;;;;;3.53;76.10;95899.97;4991261;28;20046;-49
2021/04/18 00:24:56;;;;;;;17.98;13.90;;;;;;;3.48;76.59;95898.19;4991059;28;20062;-50
2021/04/18 00:27:23;;;;;;;16.10;13.20;;;;;;;3.59;76.58;95906.84;4991188;28;20073;-50
2021/04/18 00:29:49;;;;;;;19.27;13.20;;;;;;;3.45;75.94;95898.75;4991307;28;20399;-49
2021/04/18 00:32:16;;;;;;;15.55;12.93;;;;;;;3.45;76.04;95891.53;4990761;28;20054;-47
2021/04/18 00:34:42;;;;;;;16.05;13.27;;;;;;;3.43;76.52;95900.91;4990907;28;20125;-49
2021/04/18 00:37:09;;;;;;;17.27;13.85;;;;;;;3.42;77.40;95893.97;4991136;28;20439;-50
2021/04/18 00:39:36;;;;;;;19.13;13.52;;;;;;;3.62;76.56;95891.03;4990832;28;20050;-50
2021/04/18 00:42:03;;;;;;;17.83;13.85;;;;;;;3.60;76.62;95892.38;4990533;28;20069;-51
2021/04/18 00:44:29;;;;;;;17.70;14.45;;;;;;;3.38;76.78;95887.59;4989328;28;20463;-50
2021/04/18 00:46:56;;;;;;;17.77;14.30;;;;;;;3.23;77.37;95884.03;4990853;28;20050;-45
2021/04/18 00:49:22;;;;;;;18.65;13.55;;;;;;;3.16;77.99;95893.50;4989757;28;20460;-45
2021/04/18 00:51:49;;;;;;;18.38;14.32;;;;;;;3.17;77.90;95895.06;4990619;28;20146;-47
2021/04/18 00:54:16;;;;;;;18.25;14.13;;;;;;;3.16;78.21;95899.63;4990552;28;20097;-46
2021/04/18 00:56:42;;;;;;;18.95;14.82;;;;;;;3.20;78.24;95897.19;4992600;28;20050;-47
2021/04/18 00:59:09;;;;;;;18.30;14.02;;;;;;;3.22;78.21;95895.81;4993382;28;20074;-45
2021/04/18 01:01:36;;;;;;;18.55;15.02;;;;;;;3.07;78.50;95889.84;4993083;28;20054;-45
2021/04/18 01:04:04;;;;;;;17.80;14.77;;;;;;;3.03;78.94;95893.09;4994776;28;20447;-49
2021/04/18 01:06:31;;;;;;;17.85;14.73;;;;;;;3.07;78.88;95900.53;5002260;28;20092;-44
2021/04/18 01:08:58;;;;;;;21.40;15.48;;;;;;;3.10;78.81;95897.31;5007731;28;20121;-44
2021/04/18 01:11:25;;;;;;;18.85;15.35;;;;;;;3.07;78.99;95892.53;4994862;28;20057;-45
2021/04/18 01:13:53;;;;;;;20.73;16.10;;;;;;;3.06;79.14;95894.41;4994527;28;20155;-49
2021/04/18 01:16:20;;;;;;;19.75;15.90;;;;;;;2.97;79.24;95888.88;4994895;28;20137;-45
2021/04/18 01:18:48;;;;;;;19.70;15.82;;;;;;;3.00;79.49;95885.66;4994603;28;20054;-47
2021/04/18 01:21:15;;;;;;;19.85;15.63;;;;;;;3.15;79.51;95878.50;4993001;28;20054;-45
2021/04/18 01:23:54;;;;;;;19.42;16.27;;;;;;;3.11;78.97;95878.28;4992848;28;20058;-45
2021/04/18 01:26:49;;;;;;;20.40;16.13;;;;;;;3.07;79.40;95876.50;5001997;28;20380;-45
2021/04/18 01:29:16;;;;;;;22.17;15.70;;;;;;;3.17;79.55;95871.81;4994180;28;20051;-46
2021/04/18 01:31:42;;;;;;;21.40;15.77;;;;;;;3.10;79.21;95870.56;4992825;28;20058;-49
2021/04/18 01:34:14;;;;;;;20.83;15.85;;;;;;;3.00;79.54;95880.28;4992817;28;20046;-46
2021/04/18 01:36:47;;;;;;;18.85;15.40;;;;;;;3.09;79.65;95869.78;4994460;28;20113;-47
2021/04/18 01:39:14;;;;;;;19.75;15.27;;;;;;;3.04;79.61;95875.16;4999589;28;20080;-45
2021/04/18 01:41:42;;;;;;;17.70;14.02;;;;;;;3.00;79.60;95874.94;5012089;28;20419;-47
2021/04/18 01:44:13;;;;;;;19.05;15.07;;;;;;;2.91;79.93;95876.66;4997108;28;20069;-44
2021/04/18 01:46:43;;;;;;;20.90;16.13;;;;;;;2.78;80.84;95874.66;4993687;28;20070;-48
2021/04/18 01:49:11;;;;;;;20.83;16.45;;;;;;;2.84;80.68;95878.09;4992780;28;20390;-50
2021/04/18 01:51:39;;;;;;;23.58;16.20;;;;;;;2.77;80.98;95873.09;4991990;28;20073;-45
2021/04/18 01:54:07;;;;;;;21.90;16.55;;;;;;;2.87;80.81;95880.97;4992515;28;20666;-45
2021/04/18 01:56:34;;;;;;;20.92;16.30;;;;;;;2.77;81.20;95878.41;4992517;28;20492;-45
2021/04/18 01:59:02;;;;;;;20.83;16.10;;;;;;;2.80;81.18;95877.84;4992465;28;20073;-47
2021/04/18 02:01:40;;;;;;;21.20;16.33;;;;;;;2.76;81.36;95879.47;4993148;28;20054;-49
2021/04/18 02:04:35;;;;;;;19.90;15.40;;;;;;;2.69;81.80;95876.34;4992314;28;20081;-44
2021/04/18 02:07:05;;;;;;;20.08;16.23;;;;;;;2.87;81.92;95878.31;4993698;28;20054;-46
2021/04/18 02:09:34;;;;;;;20.63;16.45;;;;;;;2.94;81.51;95876.09;4992594;28;20057;-46
2021/04/18 02:12:06;;;;;;;20.48;16.17;;;;;;;2.98;80.90;95885.13;4975834;28;20081;-47
2021/04/18 02:14:35;;;;;;;18.92;15.00;;;;;;;3.12;80.78;95871.88;5011592;28;20073;-48
2021/04/18 02:17:09;;;;;;;21.38;16.08;;;;;;;3.24;79.82;95868.78;5011828;28;20045;-50
2021/04/18 02:19:36;;;;;;;20.70;16.73;;;;;;;3.28;79.56;95875.13;5012985;28;20065;-49
2021/04/18 02:22:03;;;;;;;19.08;15.55;;;;;;;3.21;79.60;95875.50;5010232;28;20545;-50
2021/04/18 02:24:32;;;;;;;19.77;15.38;;;;;;;3.27;80.12;95868.22;5013035;28;20045;-50
2021/04/18 02:27:00;;;;;;;22.25;16.00;;;;;;;3.16;79.95;95872.91;5012010;28;20471;-45
2021/04/18 02:29:33;;;;;;;20.85;16.08;;;;;;;3.23;79.79;95868.00;5004729;28;20054;-47
2021/04/18 02:32:06;;;;;;;18.60;15.57;;;;;;;3.07;80.04;95868.47;4991744;28;20519;-45
2021/04/18 02:34:38;;;;;;;19.80;15.63;;;;;;;3.03;80.86;95863.69;4992822;28;20523;-46
2021/04/18 02:37:06;;;;;;;20.42;16.42;;;;;;;3.22;80.32;95860.28;4991373;28;20077;-47
2021/04/18 02:39:32;;;;;;;21.85;16.23;;;;;;;3.26;80.03;95866.63;4991237;28;20053;-46
2021/04/18 02:42:00;;;;;;;22.17;16.70;;;;;;;3.28;80.08;95859.09;4992610;28;20137;-45
2021/04/18 02:44:27;;;;;;;20.25;16.20;;;;;;;3.28;79.45;95867.94;4992553;28;20508;-48
2021/04/18 02:46:54;;;;;;;21.73;16.02;;;;;;;3.32;79.58;95870.84;4991421;28;20042;-45
2021/04/18 02:49:22;;;;;;;22.40;17.38;;;;;;;3.28;79.85;95867.94;4991424;28;20131;-45
2021/04/18 02:51:49;;;;;;;20.35;15.48;;;;;;;3.24;80.30;95868.78;4992194;28;20460;-45
2021/04/18 02:54:16;;;;;;;23.02;17.48;;;;;;;3.16;80.23;95858.75;4992499;28;20050;-45
2021/04/18 02:56:49;;;;;;;20.58;16.75;;;;;;;3.21;80.45;95864.78;4992474;28;20069;-45
2021/04/18 02:59:17;;;;;;;20.63;16.58;;;;;;;3.32;80.53;95860.13;4991009;28;20053;-46
2021/04/18 03:01:44;;;;;;;24.83;18.00;;;;;;;3.27;79.99;95860.19;4990510;28;20053;-46
2021/04/18 03:04:12;;;;;;;21.55;16.40;;;;;;;3.37;79.83;95857.38;4992052;28;20051;-49
2021/04/18 03:06:39;;;;;;;25.45;18.02;;;;;;;3.19;79.85;95861.63;5000996;28;20045;-45
2021/04/18 03:09:06;;;;;;;21.70;17.33;;;;;;;3.18;80.18;95853.88;5010270;28;20499;-49
2021/04/18 03:11:36;;;;;;;22.95;17.55;;;;;;;3.30;80.55;95861.50;4975564;28;20058;-48
2021/04/18 03:14:15;;;;;;;22.70;17.38;;;;;;;3.21;80.27;95859.44;4990677;28;20113;-45
2021/04/18 03:16:41;;;;;;;20.90;17.25;;;;;;;3.21;80.21;95855.97;4992206;28;20104;-46
2021/04/18 03:19:09;;;;;;;21.08;16.40;;;;;;;3.36;79.94;95855.00;4990476;28;20136;-49
2021/04/18 03:21:37;;;;;;;24.33;17.48;;;;;;;3.39;79.94;95854.44;4990990;28;20500;-47
2021/04/18 03:24:05;;;;;;;21.23;17.45;;;;;;;3.33;79.87;95851.03;4990811;28;20061;-48
2021/04/18 03:26:31;;;;;;;22.00;17.42;;;;;;;3.25;79.62;95851.66;4990562;28;20056;-47
2021/04/18 03:29:02;;;;;;;23.05;18.10;;;;;;;3.22;80.07;95852.25;4990370;28;20043;-47
2021/04/18 03:31:29;;;;;;;25.02;17.88;;;;;;;3.15;80.27;95849.94;4990342;28;20073;-48
2021/04/18 03:34:00;;;;;;;22.20;18.13;;;;;;;2.99;81.03;95859.19;4991833;28;20397;-50
2021/04/18 03:36:27;;;;;;;22.27;17.38;;;;;;;2.86;81.45;95858.03;4991946;28;20046;-50
2021/04/18 03:39:02;;;;;;;23.85;18.05;;;;;;;2.95;81.58;95863.50;5015171;28;20060;-48
2021/04/18 03:41:29;;;;;;;21.65;17.20;;;;;;;2.96;81.05;95852.56;5029370;28;20053;-48
2021/04/18 03:43:57;;;;;;;24.52;18.17;;;;;;;2.81;81.90;95866.09;5000554;28;20050;-51
2021/04/18 03:46:27;;;;;;;22.75;17.67;;;;;;;2.81;82.03;95860.72;4990469;28;20046;-51
2021/04/18 03:48:56;;;;;;;23.85;18.20;;;;;;;2.94;81.79;95862.72;4990426;28;20054;-49
2021/04/18 03:51:45;;;;;;;23.30;18.25;;;;;;;2.88;81.81;95865.75;4996965;28;20046;-51
2021/04/18 03:54:12;;;;;;;23.55;17.88;;;;;;;2.90;81.87;95859.03;4991668;28;20124;-48
2021/04/18 03:56:39;;;;;;;24.58;18.52;;;;;;;2.74;82.53;95857.63;4991564;28;20496;-48
2021/04/18 03:59:07;;;;;;;24.08;19.25;;;;;;;2.67;82.87;95857.16;4990167;28;20050;-51
2021/04/18 04:01:34;;;;;;;24.33;18.40;;;;;;;2.75;82.59;95861.88;4991179;28;20519;-48
2021/04/18 04:04:04;;;;;;;25.02;18.08;;;;;;;2.74;82.62;95857.63;4991497;28;20050;-53
2021/04/18 04:06:37;;;;;;;24.10;18.08;;;;;;;2.78;82.59;95855.97;5000009;28;20061;-52
2021/04/18 04:09:05;;;;;;;26.10;18.52;;;;;;;2.70;82.64;95853.94;4998212;28;20073;-47
2021/04/18 04:11:36;;;;;;;25.75;19.33;;;;;;;2.72;82.89;95857.09;4991104;28;20073;-48
2021/04/18 04:14:04;;;;;;;27.05;19.65;;;;;;;2.75;82.33;95862.66;4991033;28;20050;-47
2021/04/18 04:16:36;;;;;;;26.67;19.95;;;;;;;2.86;82.53;95858.03;4990029;28;20124;-47
2021/04/18 04:19:03;;;;;;;23.23;18.15;;;;;;;2.88;82.36;95865.75;4991291;28;20065;-48
2021/04/18 04:21:48;;;;;;;24.80;18.50;;;;;;;2.82;82.36;95856.97;4990546;28;20077;-48
2021/04/18 04:24:33;;;;;;;25.98;19.48;;;;;;;2.81;82.57;95863.41;4991287;28;20135;-46
2021/04/18 04:27:00;;;;;;;28.30;19.33;;;;;;;2.72;82.66;95857.88;4990965;28;20453;-47
2021/04/18 04:29:26;;;;;;;25.02;19.05;;;;;;;2.65;83.23;95851.28;4990914;28;20104;-47
2021/04/18 04:31:53;;;;;;;25.42;18.60;;;;;;;2.74;82.65;95860.28;4992692;28;20054;-47
2021/04/18 04:34:19;;;;;;;25.48;18.52;;;;;;;2.79;82.89;95862.88;4994943;28;20388;-45
2021/04/18 04:36:46;;;;;;;25.98;18.60;;;;;;;2.85;82.99;95860.97;4995143;28;20046;-46
2021/04/18 04:39:13;;;;;;;23.40;18.10;;;;;;;2.84;82.44;95859.38;4994963;28;20432;-47
2021/04/18 04:41:39;;;;;;;26.70;19.20;;;;;;;2.85;82.32;95866.31;4994694;28;20081;-48
2021/04/18 04:44:08;;;;;;;25.77;19.02;;;;;;;2.73;82.96;95874.69;4994659;28;20574;-46
2021/04/18 04:46:36;;;;;;;27.70;19.15;;;;;;;2.73;82.82;95870.19;5014155;28;20587;-46
2021/04/18 04:49:02;;;;;;;27.02;19.70;;;;;;;2.77;82.87;95867.72;5014337;28;20137;-45
2021/04/18 04:51:29;;;;;;;27.90;20.75;;;;;;;2.73;82.82;95870.19;5014386;28;20084;-46
2021/04/18 04:53:56;;;;;;;26.73;19.50;;;;;;;2.86;83.21;95874.06;4997439;28;20054;-46
2021/04/18 04:56:22;;;;;;;26.92;19.30;;;;;;;2.92;82.47;95872.88;4994643;28;20066;-47
2021/04/18 04:58:48;;;;;;;26.27;19.38;;;;;;;2.90;82.12;95872.41;4994760;28;20061;-47
2021/04/18 05:01:16;;;;;;;26.63;19.98;;;;;;;2.93;82.81;95879.84;4993011;28;20082;-46
2021/04/18 05:03:42;;;;;;;23.83;18.23;;;;;;;3.02;82.20;95874.66;4994406;28;20106;-46
2021/04/18 05:06:10;;;;;;;24.45;18.50;;;;;;;3.06;81.36;95880.25;5000525;28;20073;-48
2021/04/18 05:08:36;;;;;;;24.45;18.70;;;;;;;3.11;81.16;95877.50;5007121;28;20053;-46
2021/04/18 05:11:04;;;;;;;26.40;19.73;;;;;;;3.06;81.20;95889.06;4994437;28;20108;-49
2021/04/18 05:13:30;;;;;;;22.67;18.13;;;;;;;2.89;81.79;95875.34;4993904;28;20108;-47
2021/04/18 05:15:57;;;;;;;24.75;18.63;;;;;;;2.93;81.94;95884.41;4994546;28;20042;-46
2021/04/18 05:18:24;;;;;;;24.60;18.83;;;;;;;2.95;82.05;95883.00;4994640;28;20050;-50
2021/04/18 05:20:51;;;;;;;25.15;18.92;;;;;;;2.77;82.60;95883.75;4993002;28;20050;-47
2021/04/18 05:23:18;;;;;;;27.50;19.25;;;;;;;2.80;82.84;95886.66;4993733;28;20081;-49
2021/04/18 05:25:44;;;;;;;25.38;19.05;;;;;;;2.79;82.75;95884.25;4994028;28;20519;-51
2021/04/18 05:28:11;;;;;;;25.98;18.88;;;;;;;2.83;82.94;95889.84;4994104;28;20057;-49
2021/04/18 05:30:38;;;;;;;24.77;18.38;;;;;;;2.99;82.63;95893.94;4993934;28;20393;-48
2021/04/18 05:33:07;;;;;;;26.35;19.52;;;;;;;2.89;83.41;95886.81;4993780;28;20385;-48
2021/04/18 05:35:33;;;;;;;24.35;18.67;;;;;;;2.99;82.83;95891.25;4993032;28;20054;-50
2021/04/18 05:38:00;;;;;;;25.63;18.52;;;;;;;2.92;82.15;95894.28;4993867;28;20066;-48
2021/04/18 05:40:27;;;;;;;24.27;18.42;;;;;;;2.98;82.73;95897.69;4994049;28;20074;-49
2021/04/18 05:42:55;;;;;;;24.83;18.77;;;;;;;3.19;83.17;95898.28;4992491;28;20093;-47
2021/04/18 05:45:22;;;;;;;24.27;18.00;;;;;;;3.17;82.13;95903.09;4992723;28;20050;-49
2021/04/18 05:47:49;;;;;;;23.90;18.08;;;;;;;3.13;82.96;95908.22;4993810;28;20062;-49
2021/04/18 05:50:15;;;;;;;24.50;18.63;;;;;;;3.18;82.47;95900.13;4993878;28;20102;-49
2021/04/18 05:52:44;;;;;;;26.02;17.95;;;;;;;2.88;82.70;95903.94;4993187;28;20050;-51
2021/04/18 05:55:11;;;;;;;27.33;19.73;;;;;;;2.80;84.28;95908.03;4993860;28;20053;-47
2021/04/18 05:57:37;;;;;;;24.30;18.02;;;;;;;2.66;83.76;95906.31;4993807;28;20042;-49
2021/04/18 06:00:05;;;;;;;26.98;19.60;;;;;;;2.61;84.28;95898.34;4993919;28;20100;-48
2021/04/18 06:02:39;;;;;;;28.33;19.75;;;;;;;2.75;84.31;95905.41;4993567;28;20089;-48
2021/04/18 06:05:06;;;;;;;26.65;19.20;;;;;;;2.65;84.77;95902.03;4993552;28;20058;-48
2021/04/18 06:07:35;;;;;;;30.55;19.08;;;;;;;2.56;84.36;95909.88;5009922;28;20041;-49
2021/04/18 06:10:04;;;;;;;27.05;19.02;;;;;;;2.48;84.73;95908.63;5010796;28;20458;-49
2021/04/18 06:12:30;;;;;;;28.67;19.38;;;;;;;2.50;85.16;95922.50;4992267;28;20058;-49
2021/04/18 06:14:57;;;;;;;27.98;19.40;;;;;;;2.53;84.64;95907.75;4993418;28;20058;-48
2021/04/18 06:17:23;;;;;;;27.05;18.38;;;;;;;2.43;84.65;95918.53;4993304;28;20050;-47
2021/04/18 06:19:50;;;;;;;26.48;18.30;;;;;;;2.32;85.46;95918.63;4993717;28;20054;-50
2021/04/18 06:22:18;;;;;;;27.10;18.83;;;;;;;2.37;84.87;95909.75;4994326;28;20054;-47
2021/04/18 06:24:44;;;;;;;28.95;19.88;;;;;;;2.52;85.39;95906.97;4995525;28;20057;-46
2021/04/18 06:27:10;;;;;;;27.25;19.60;;;;;;;2.70;85.30;95913.50;5011651;28;20078;-46
2021/04/18 06:29:37;;;;;;;28.63;19.27;;;;;;;2.68;84.39;95914.84;5012893;28;20049;-46
2021/04/18 06:32:04;;;;;;;27.58;19.58;;;;;;;2.92;83.53;95926.34;5002083;28;20046;-47
2021/04/18 06:34:30;;;;;;;27.88;19.52;;;;;;;2.80;83.92;95909.91;4993185;28;20113;-47
2021/04/18 06:36:57;;;;;;;26.92;19.45;;;;;;;2.62;84.17;95914.09;4993385;28;20050;-47
2021/04/18 06:39:23;;;;;;;30.05;20.25;;;;;;;2.77;84.39;95907.81;4993105;28;20058;-49
2021/04/18 06:41:55;;;;;;;28.63;19.05;;;;;;;2.85;83.75;95915.19;4992511;28;20429;-47
2021/04/18 06:44:22;;;;;;;27.67;19.88;;;;;;;3.02;82.86;95909.41;4992611;28;20054;-46
2021/04/18 06:46:52;;;;;;;27.33;19.63;;;;;;;2.97;83.26;95912.16;4992977;28;20512;-48
2021/04/18 06:49:19;;;;;;;27.23;19.83;;;;;;;3.07;84.14;95911.25;4991727;28;20058;-47
2021/04/18 06:51:59;;;;;;;27.30;19.40;;;;;;;3.39;81.69;95907.91;4991570;28;20531;-52
2021/04/18 06:54:30;;;;;;;27.67;18.73;;;;;;;3.25;81.98;95913.97;4992745;28;20393;-50
2021/04/18 06:56:57;;;;;;;28.33;19.60;;;;;;;3.25;83.49;95910.47;4992856;28;20045;-47
2021/04/18 06:59:23;;;;;;;25.40;18.23;;;;;;;3.12;82.64;95908.50;4993107;28;20112;-48
2021/04/18 07:01:50;;;;;;;27.90;19.33;;;;;;;3.10;83.65;95903.44;5003771;28;20050;-48
2021/04/18 07:04:19;;;;;;;28.92;19.63;;;;;;;2.87;83.43;95912.25;5012153;28;20050;-47
2021/04/18 07:06:46;;;;;;;25.50;18.35;;;;;;;2.98;83.07;95908.38;5012309;28;20064;-46
2021/04/18 07:09:17;;;;;;;26.00;18.63;;;;;;;2.90;82.73;95906.34;5004638;28;20073;-45
2021/04/18 07:11:54;;;;;;;26.15;18.40;;;;;;;3.13;83.36;95907.44;4992157;28;20166;-47
2021/04/18 07:14:34;;;;;;;27.80;19.45;;;;;;;3.40;81.81;95902.28;4998449;28;20570;-46
2021/04/18 07:17:10;;;;;;;28.23;19.90;;;;;;;3.62;80.85;95900.94;5011233;28;20054;-46
2021/04/18 07:19:44;;;;;;;27.25;19.75;;;;;;;3.83;78.46;95899.56;5003361;28;20049;-47
2021/04/18 07:22:14;;;;;;;27.15;20.15;;;;;;;3.84;78.62;95897.69;4992846;28;20070;-48
2021/04/18 07:24:59;;;;;;;26.75;19.08;;;;;;;3.59;80.41;95909.53;4994376;28;20073;-48
2021/04/18 07:27:49;;;;;;;26.35;19.83;;;;;;;3.87;78.61;95905.94;4992572;28;20054;-49
2021/04/18 07:30:21;;;;;;;26.45;20.50;;;;;;;3.99;78.57;95908.94;4991686;28;20054;-46
2021/04/18 07:33:07;;;;;;;28.10;19.63;;;;;;;4.03;78.79;95903.84;4991830;28;20153;-46
2021/04/18 07:35:42;;;;;;;24.88;18.05;;;;;;;3.79;78.57;95906.56;4992259;28;20112;-50
2021/04/18 07:38:24;;;;;;;27.20;19.40;;;;;;;3.22;81.57;95905.72;4992079;28;20054;-45
2021/04/18 07:40:54;;;;;;;29.35;20.02;;;;;;;2.89;82.44;95910.88;4991779;28;20054;-44
2021/04/18 07:43:21;;;;;;;29.25;19.73;;;;;;;3.15;82.48;95902.56;4991735;28;20054;-46
2021/04/18 07:45:50;;;;;;;30.83;21.42;;;;;;;3.06;82.34;95901.63;4990622;28;20069;-48
2021/04/18 07:48:19;;;;;;;30.17;20.85;;;;;;;3.17;82.00;95906.56;4991951;28;20054;-45
2021/04/18 07:50:48;;;;;;;32.42;20.77;;;;;;;3.26;81.99;95912.09;4991771;28;20077;-48
2021/04/18 07:53:17;;;;;;;29.27;20.55;;;;;;;3.51;81.75;95906.41;4991279;28;20054;-45
2021/04/18 07:55:44;;;;;;;30.98;20.63;;;;;;;3.35;81.43;95906.88;4991774;28;20361;-47
2021/04/18 07:58:12;;;;;;;29.67;21.13;;;;;;;3.28;82.71;95916.06;4991883;28;20145;-46
2021/04/18 08:00:38;;;;;;;31.90;21.52;;;;;;;3.18;82.73;95908.16;4991953;28;20065;-48
2021/04/18 08:03:06;;;;;;;30.02;21.45;;;;;;;3.54;81.82;95897.00;4991322;28;20061;-46
2021/04/18 08:05:34;;;;;;;27.60;20.35;;;;;;;3.72;80.09;95898.91;4991684;28;20058;-49
2021/04/18 08:08:15;;;;;;;30.88;22.08;;;;;;;3.48;81.07;95906.22;4991536;28;20377;-45
2021/04/18 08:10:49;;;;;;;28.23;20.35;;;;;;;3.57;80.94;95898.31;4991964;28;20078;-44
2021/04/18 08:13:22;;;;;;;29.42;21.13;;;;;;;3.46;80.52;95908.34;4991373;28;20062;-45
2021/04/18 08:15:52;;;;;;;29.15;20.83;;;;;;;3.69;80.34;95904.03;5002367;28;20050;-46
2021/04/18 08:18:30;;;;;;;31.77;21.88;;;;;;;3.46;80.09;95909.16;5008991;28;20054;-50
2021/04/18 08:20:58;;;;;;;35.63;24.30;;;;;;;3.68;80.32;95905.13;4991087;28;20050;-47
2021/04/18 08:23:39;;;;;;;32.95;23.80;;;;;;;3.71;80.44;95904.56;4993218;28;20050;-47
2021/04/18 08:26:06;;;;;;;33.50;23.75;;;;;;;3.65;81.83;95906.50;4991358;28;20058;-45
2021/04/18 08:28:55;;;;;;;32.90;22.05;;;;;;;3.51;80.14;95916.34;5007670;28;20050;-47
2021/04/18 08:31:29;;;;;;;34.70;22.83;;;;;;;3.63;81.33;95910.53;5007028;28;20046;-46
2021/04/18 08:34:01;;;;;;;32.10;22.75;;;;;;;3.68;80.27;95910.50;5002791;28;20089;-49
2021/04/18 08:36:30;;;;;;;29.83;21.20;;;;;;;3.57;79.00;95912.47;4988059;28;20049;-49
2021/04/18 08:39:05;;;;;;;32.78;22.63;;;;;;;3.61;80.35;95912.72;5009755;28;20061;-48
2021/04/18 08:41:47;;;;;;;33.80;23.05;;;;;;;3.60;78.89;95919.16;5005076;28;20077;-50
2021/04/18 08:44:35;;;;;;;32.85;22.02;;;;;;;3.67;78.91;95911.56;4998278;28;20053;-50
2021/04/18 08:47:13;;;;;;;35.38;24.38;;;;;;;3.74;80.82;95925.38;4992575;28;20066;-45
2021/04/18 08:49:48;;;;;;;33.88;22.67;;;;;;;3.67;81.18;95920.41;5003404;28;20056;-46
2021/04/18 08:52:22;;;;;;;31.08;22.02;;;;;;;3.98;78.17;95926.09;4996282;28;20118;-48
2021/04/18 08:54:50;;;;;;;31.95;23.20;;;;;;;4.42;77.12;95916.88;5000024;28;20149;-49
2021/04/18 08:57:22;;;;;;;35.05;24.65;;;;;;;4.67;77.92;95925.56;4990017;28;20050;-46
2021/04/18 08:59:54;;;;;;;32.00;23.10;;;;;;;4.51;77.50;95919.66;5003859;28;20073;-45
2021/04/18 09:02:21;;;;;;;33.10;24.08;;;;;;;4.50;78.54;95926.13;5007244;28;20075;-46
2021/04/18 09:04:54;;;;;;;38.70;26.15;;;;;;;4.75;79.19;95926.78;5007714;28;20046;-49
2021/04/18 09:07:24;;;;;;;35.67;25.27;;;;;;;4.75;78.86;95930.25;5007419;28;20049;-46
2021/04/18 09:09:55;;;;;;;36.45;25.63;;;;;;;4.99;78.00;95931.97;5009763;28;20518;-46
2021/04/18 09:12:21;;;;;;;32.63;23.70;;;;;;;4.65;76.84;95927.75;5005915;28;20066;-47
2021/04/18 09:14:55;;;;;;;33.22;24.13;;;;;;;3.85;79.21;95932.19;5004484;28;20046;-49
2021/04/18 09:17:30;;;;;;;36.55;25.40;;;;;;;4.42;81.70;95929.47;5009513;28;20069;-45
2021/04/18 09:20:17;;;;;;;36.17;25.75;;;;;;;4.90;80.38;95921.94;5013720;28;20133;-48
2021/04/18 09:22:44;;;;;;;35.75;25.80;;;;;;;4.64;76.65;95926.16;5004743;28;20053;-47
2021/04/18 09:25:17;;;;;;;37.17;26.90;;;;;;;4.68;77.40;95927.19;5012987;28;20054;-46
2021/04/18 09:27:47;;;;;;;37.03;27.05;;;;;;;4.65;77.72;95925.09;5012869;28;20065;-45
2021/04/18 09:30:16;;;;;;;33.70;24.80;;;;;;;4.19;76.87;95923.13;5011409;28;20427;-45
2021/04/18 09:32:47;;;;;;;38.75;26.85;;;;;;;4.16;79.22;95929.06;5002981;28;20800;-45
2021/04/18 09:35:17;;;;;;;37.03;27.05;;;;;;;4.48;78.48;95930.97;5012952;28;20074;-48
2021/04/18 09:37:51;;;;;;;38.22;27.40;;;;;;;4.59;78.65;95931.59;5008899;28;20050;-45
2021/04/18 09:40:23;;;;;;;40.15;28.10;;;;;;;4.89;77.56;95932.97;5007436;28;20425;-48
2021/04/18 09:42:51;;;;;;;39.70;28.58;;;;;;;4.62;76.10;95933.72;5010282;28;20295;-47
2021/04/18 09:45:28;;;;;;;39.97;27.90;;;;;;;4.32;79.11;95929.63;5009262;28;20142;-47
2021/04/18 09:48:10;;;;;;;40.60;28.75;;;;;;;4.66;77.85;95930.13;5013759;28;20053;-43
2021/04/18 09:51:00;;;;;;;37.03;27.55;;;;;;;4.70;76.63;95935.69;5010364;28;20423;-51
2021/04/18 09:53:26;;;;;;;39.03;28.65;;;;;;;5.25;76.94;95934.97;5005639;28;20049;-46
2021/04/18 09:55:58;;;;;;;37.83;27.33;;;;;;;5.84;75.38;95931.34;5013516;28;20048;-48
2021/04/18 09:58:33;;;;;;;35.92;26.45;;;;;;;6.01;71.48;95935.31;5012452;28;20165;-47
2021/04/18 10:01:01;;;;;;;37.78;25.77;;;;;;;5.72;73.11;95933.78;5003874;28;20452;-45
2021/04/18 10:03:37;;;;;;;32.80;25.38;;;;;;;6.02;70.75;95936.91;5003616;28;20053;-45
2021/04/18 10:06:07;;;;;;;32.50;23.83;;;;;;;6.33;69.99;95937.78;5013067;28;20080;-46
2021/04/18 10:08:35;;;;;;;30.63;22.45;;;;;;;5.06;73.06;95937.75;5012718;28;20045;-47
2021/04/18 10:11:10;;;;;;;34.00;24.83;;;;;;;5.46;72.41;95928.13;4998972;28;20120;-45
2021/04/18 10:13:51;;;;;;;31.33;23.27;;;;;;;5.79;72.35;95933.38;4993033;28;20392;-44
2021/04/18 10:16:24;;;;;;;32.55;24.08;;;;;;;5.22;75.11;95930.22;4993740;28;20050;-44
2021/04/18 10:19:10;;;;;;;33.78;24.52;;;;;;;5.49;74.11;95924.84;4994031;28;20633;-46
2021/04/18 10:21:38;;;;;;;31.23;23.92;;;;;;;5.29;73.14;95926.03;4992252;28;20432;-46
2021/04/18 10:24:34;;;;;;;31.70;23.80;;;;;;;5.33;74.96;95921.69;4994089;28;20511;-45
2021/04/18 10:27:22;;;;;;;33.58;24.23;;;;;;;5.65;75.34;95922.63;4993568;28;20054;-45
2021/04/18 10:29:49;;;;;;;30.35;22.13;;;;;;;5.27;72.81;95922.88;4993146;28;20053;-45
2021/04/18 10:32:18;;;;;;;28.23;20.40;;;;;;;5.56;71.42;95930.59;4992967;28;20065;-47
2021/04/18 10:34:49;;;;;;;26.08;20.95;;;;;;;5.54;70.17;95926.63;5000749;28;20121;-49
2021/04/18 10:37:16;;;;;;;26.85;20.58;;;;;;;5.51;70.85;95919.19;5005351;28;20058;-48
2021/04/18 10:39:43;;;;;;;24.67;20.27;;;;;;;5.50;70.50;95926.44;5011545;28;20050;-48
2021/04/18 10:42:11;;;;;;;25.67;18.70;;;;;;;5.70;69.33;95927.91;5011825;28;20057;-50
2021/04/18 10:44:38;;;;;;;25.48;18.67;;;;;;;5.28;70.18;95924.44;5012363;28;20056;-47
2021/04/18 10:47:18;;;;;;;24.95;17.75;;;;;;;5.14;70.68;95929.03;5011929;28;20143;-50
2021/04/18 10:49:49;;;;;;;26.85;20.67;;;;;;;5.25;70.86;95924.25;5006184;28;20367;-49
2021/04/18 10:52:16;;;;;;;28.05;20.23;;;;;;;5.39;71.82;95915.13;5011748;28;20065;-46
2021/04/18 10:54:43;;;;;;;30.77;22.13;;;;;;;5.87;70.93;95919.22;5030082;28;20408;-47
2021/04/18 10:57:10;;;;;;;28.23;20.73;;;;;;;5.46;72.45;95920.09;5032142;28;20056;-45
2021/04/18 10:59:36;;;;;;;27.98;19.70;;;;;;;5.25;71.29;95918.88;5013886;28;20114;-45
2021/04/18 11:02:05;;;;;;;24.27;19.88;;;;;;;5.46;71.93;95913.91;4992149;28;20060;-48
2021/04/18 11:04:37;;;;;;;26.27;20.50;;;;;;;5.71;70.48;95912.59;4992495;28;20463;-45
2021/04/18 11:07:04;;;;;;;25.67;19.98;;;;;;;5.39;71.56;95915.13;5002322;28;20057;-46
2021/04/18 11:09:31;;;;;;;27.85;20.58;;;;;;;5.81;72.32;95913.16;4993509;28;20129;-47
2021/04/18 11:11:58;;;;;;;26.42;20.58;;;;;;;6.00;71.48;95912.25;4998095;28;20046;-48
2021/04/18 11:14:24;;;;;;;25.73;19.98;;;;;;;6.20;71.04;95917.16;4999705;28;20065;-45
2021/04/18 11:16:51;;;;;;;25.15;19.67;;;;;;;5.54;70.52;95907.84;5011802;28;20084;-45
2021/04/18 11:19:18;;;;;;;26.35;18.85;;;;;;;6.03;70.54;95917.00;5001903;28;20064;-51
2021/04/18 11:21:45;;;;;;;26.55;19.20;;;;;;;6.14;69.71;95923.72;5001499;28;20056;-46
2021/04/18 11:24:11;;;;;;;24.92;18.65;;;;;;;6.12;69.28;95912.50;5007624;28;20050;-47
2021/04/18 11:26:38;;;;;;;26.88;19.75;;;;;;;5.94;70.11;95913.44;5008127;28;20052;-49
2021/04/18 11:29:05;;;;;;;25.00;20.00;;;;;;;6.47;68.82;95915.47;4999866;28;20042;-46
2021/04/18 11:31:32;;;;;;;26.45;20.33;;;;;;;7.02;69.15;95905.19;5009682;28;20046;-50
2021/04/18 11:33:59;;;;;;;23.45;18.05;;;;;;;6.30;66.45;95911.56;5010734;28;20056;-45
2021/04/18 11:36:26;;;;;;;25.30;18.23;;;;;;;6.14;66.66;95915.66;5007789;28;20128;-48